sensor_id;sensor_type;location;lat;lon;timestamp;pressure;altitude;pressure_sealevel;temperature;humidity
53647;BME280;39550;52.230;5.194;2023-09-19T00:00:59;100522.63;;;16.92;86.01
53647;BME280;39550;52.230;5.194;2023-09-19T00:03:24;100529.50;;;16.93;86.13
53647;BME280;39550;52.230;5.194;2023-09-19T00:05:53;100530.47;;;16.91;85.90
53647;BME280;39550;52.230;5.194;2023-09-19T00:08:20;100534.84;;;16.89;85.95
53647;BME280;39550;52.230;5.194;2023-09-19T00:10:53;100533.94;;;16.90;86.17
53647;BME280;39550;52.230;5.194;2023-09-19T00:13:20;100543.50;;;16.89;85.58
53647;BME280;39550;52.230;5.194;2023-09-19T00:15:47;100546.09;;;16.88;85.68
53647;BME280;39550;52.230;5.194;2023-09-19T00:18:17;100549.59;;;16.87;85.96
53647;BME280;39550;52.230;5.194;2023-09-19T00:20:44;100546.09;;;16.88;85.78
53647;BME280;39550;52.230;5.194;2023-09-19T00:23:13;100546.13;;;16.86;85.54
53647;BME280;39550;52.230;5.194;2023-09-19T00:25:39;100546.16;;;16.84;86.24
53647;BME280;39550;52.230;5.194;2023-09-19T00:28:05;100550.53;;;16.84;85.67
53647;BME280;39550;52.230;5.194;2023-09-19T00:30:33;100550.53;;;16.84;85.70
53647;BME280;39550;52.230;5.194;2023-09-19T00:32:58;100554.00;;;16.83;85.47
53647;BME280;39550;52.230;5.194;2023-09-19T00:35:25;100551.41;;;16.83;85.50
53647;BME280;39550;52.230;5.194;2023-09-19T00:37:51;100555.72;;;16.84;85.62
53647;BME280;39550;52.230;5.194;2023-09-19T00:40:17;100552.28;;;16.82;85.56
53647;BME280;39550;52.230;5.194;2023-09-19T00:42:43;100549.72;;;16.80;85.17
53647;BME280;39550;52.230;5.194;2023-09-19T00:45:10;100554.94;;;16.80;85.12
53647;BME280;39550;52.230;5.194;2023-09-19T00:47:49;100561.06;;;16.78;85.50
53647;BME280;39550;52.230;5.194;2023-09-19T00:50:17;100532.03;;;16.59;85.38
53647;BME280;39550;52.230;5.194;2023-09-19T00:52:43;100531.22;;;16.55;85.63
53647;BME280;39550;52.230;5.194;2023-09-19T00:55:10;100572.38;;;16.75;85.29
53647;BME280;39550;52.230;5.194;2023-09-19T00:57:37;100571.53;;;16.75;85.23
53647;BME280;39550;52.230;5.194;2023-09-19T01:00:07;100581.09;;;16.74;85.46
53647;BME280;39550;52.230;5.194;2023-09-19T01:02:37;100573.34;;;16.73;85.21
53647;BME280;39550;52.230;5.194;2023-09-19T01:05:02;100569.03;;;16.72;85.35
53647;BME280;39550;52.230;5.194;2023-09-19T01:07:31;100576.81;;;16.72;85.17
53647;BME280;39550;52.230;5.194;2023-09-19T01:09:58;100577.72;;;16.71;85.26
53647;BME280;39550;52.230;5.194;2023-09-19T01:12:56;100580.31;;;16.71;85.47
53647;BME280;39550;52.230;5.194;2023-09-19T01:18:27;100582.09;;;16.68;85.58
53647;BME280;39550;52.230;5.194;2023-09-19T01:21:08;100575.19;;;16.67;85.17
53647;BME280;39550;52.230;5.194;2023-09-19T01:29:42;100576.94;;;16.65;84.92
53647;BME280;39550;52.230;5.194;2023-09-19T01:32:11;100572.63;;;16.66;85.31
53647;BME280;39550;52.230;5.194;2023-09-19T01:37:13;100570.91;;;16.65;84.98
53647;BME280;39550;52.230;5.194;2023-09-19T01:39:40;100574.38;;;16.64;85.12
53647;BME280;39550;52.230;5.194;2023-09-19T01:47:55;100590.91;;;16.61;85.02
53647;BME280;39550;52.230;5.194;2023-09-19T01:50:31;100591.81;;;16.60;84.84
53647;BME280;39550;52.230;5.194;2023-09-19T01:53:05;100587.50;;;16.59;84.90
53647;BME280;39550;52.230;5.194;2023-09-19T01:55:37;100590.97;;;16.58;84.64
53647;BME280;39550;52.230;5.194;2023-09-19T02:00:44;100584.94;;;16.58;85.29
53647;BME280;39550;52.230;5.194;2023-09-19T02:03:12;100578.84;;;16.57;85.22
53647;BME280;39550;52.230;5.194;2023-09-19T02:05:39;100571.06;;;16.56;84.69
53647;BME280;39550;52.230;5.194;2023-09-19T02:08:05;100570.25;;;16.55;84.54
53647;BME280;39550;52.230;5.194;2023-09-19T02:10:30;100573.72;;;16.54;85.05
53647;BME280;39550;52.230;5.194;2023-09-19T02:12:56;100563.31;;;16.54;84.79
53647;BME280;39550;52.230;5.194;2023-09-19T02:15:21;100561.59;;;16.53;84.42
53647;BME280;39550;52.230;5.194;2023-09-19T02:17:47;100582.41;;;16.53;84.74
53647;BME280;39550;52.230;5.194;2023-09-19T02:20:13;100579.00;;;16.51;85.05
53647;BME280;39550;52.230;5.194;2023-09-19T02:22:42;100577.28;;;16.50;84.74
53647;BME280;39550;52.230;5.194;2023-09-19T02:25:08;100580.75;;;16.49;84.05
53647;BME280;39550;52.230;5.194;2023-09-19T02:27:34;100585.97;;;16.49;84.37
53647;BME280;39550;52.230;5.194;2023-09-19T02:29:59;100592.06;;;16.48;84.56
53647;BME280;39550;52.230;5.194;2023-09-19T02:32:28;100594.66;;;16.48;84.64
53647;BME280;39550;52.230;5.194;2023-09-19T02:34:55;100588.59;;;16.47;84.53
53647;BME280;39550;52.230;5.194;2023-09-19T02:37:21;100579.94;;;16.47;84.04
53647;BME280;39550;52.230;5.194;2023-09-19T02:39:47;100595.56;;;16.47;83.97
53647;BME280;39550;52.230;5.194;2023-09-19T02:42:12;100593.81;;;16.46;84.53
53647;BME280;39550;52.230;5.194;2023-09-19T02:44:37;100605.16;;;16.45;84.44
53647;BME280;39550;52.230;5.194;2023-09-19T02:47:03;100601.69;;;16.43;84.52
53647;BME280;39550;52.230;5.194;2023-09-19T02:49:29;100603.50;;;16.41;84.49
53647;BME280;39550;52.230;5.194;2023-09-19T02:51:54;100599.13;;;16.41;84.03
53647;BME280;39550;52.230;5.194;2023-09-19T02:54:20;100598.28;;;16.39;83.86
53647;BME280;39550;52.230;5.194;2023-09-19T02:56:46;100604.34;;;16.41;84.18
53647;BME280;39550;52.230;5.194;2023-09-19T02:59:12;100603.50;;;16.41;83.98
53647;BME280;39550;52.230;5.194;2023-09-19T03:01:38;100591.41;;;16.38;83.91
53647;BME280;39550;52.230;5.194;2023-09-19T03:04:04;100587.94;;;16.38;84.58
53647;BME280;39550;52.230;5.194;2023-09-19T03:06:33;100577.53;;;16.38;84.38
53647;BME280;39550;52.230;5.194;2023-09-19T03:08:59;100589.72;;;16.36;84.27
53647;BME280;39550;52.230;5.194;2023-09-19T03:11:25;100574.28;;;16.26;84.65
53647;BME280;39550;52.230;5.194;2023-09-19T03:13:53;100584.50;;;16.36;84.27
53647;BME280;39550;52.230;5.194;2023-09-19T03:16:19;100582.78;;;16.34;84.38
53647;BME280;39550;52.230;5.194;2023-09-19T03:18:47;100588.03;;;16.33;83.89
53647;BME280;39550;52.230;5.194;2023-09-19T03:21:15;100587.16;;;16.34;84.12
53647;BME280;39550;52.230;5.194;2023-09-19T03:23:41;100596.69;;;16.33;83.89
53647;BME280;39550;52.230;5.194;2023-09-19T03:26:06;100595.00;;;16.32;84.18
53647;BME280;39550;52.230;5.194;2023-09-19T03:28:33;100594.06;;;16.33;84.31
53647;BME280;39550;52.230;5.194;2023-09-19T03:31:01;100589.78;;;16.32;83.74
53647;BME280;39550;52.230;5.194;2023-09-19T03:33:27;100587.19;;;16.31;83.78
53647;BME280;39550;52.230;5.194;2023-09-19T03:35:53;100579.41;;;16.29;84.07
53647;BME280;39550;52.230;5.194;2023-09-19T03:38:19;100584.63;;;16.29;83.54
53647;BME280;39550;52.230;5.194;2023-09-19T03:40:45;100582.94;;;16.28;83.61
53647;BME280;39550;52.230;5.194;2023-09-19T03:43:11;100582.94;;;16.28;83.97
53647;BME280;39550;52.230;5.194;2023-09-19T03:45:36;100589.88;;;16.26;84.03
53647;BME280;39550;52.230;5.194;2023-09-19T03:48:09;100588.16;;;16.25;83.32
53647;BME280;39550;52.230;5.194;2023-09-19T03:50:34;100586.44;;;16.26;83.45
53647;BME280;39550;52.230;5.194;2023-09-19T03:53:00;100592.53;;;16.25;83.34
53647;BME280;39550;52.230;5.194;2023-09-19T03:55:25;100597.75;;;16.23;83.61
53647;BME280;39550;52.230;5.194;2023-09-19T03:57:52;100604.72;;;16.23;83.26
53647;BME280;39550;52.230;5.194;2023-09-19T04:00:18;100598.63;;;16.22;83.31
53647;BME280;39550;52.230;5.194;2023-09-19T04:02:46;100602.13;;;16.21;83.61
53647;BME280;39550;52.230;5.194;2023-09-19T04:05:11;100607.31;;;16.21;83.43
53647;BME280;39550;52.230;5.194;2023-09-19T04:07:37;100604.75;;;16.20;83.39
53647;BME280;39550;52.230;5.194;2023-09-19T04:10:03;100616.91;;;16.19;83.80
53647;BME280;39550;52.230;5.194;2023-09-19T04:12:29;100612.59;;;16.18;83.42
53647;BME280;39550;52.230;5.194;2023-09-19T04:14:54;100616.94;;;16.17;83.32
53647;BME280;39550;52.230;5.194;2023-09-19T04:17:19;100627.34;;;16.17;83.11
53647;BME280;39550;52.230;5.194;2023-09-19T04:19:46;100626.53;;;16.14;83.29
53647;BME280;39550;52.230;5.194;2023-09-19T04:22:11;100630.81;;;16.16;83.20
53647;BME280;39550;52.230;5.194;2023-09-19T04:24:38;100629.97;;;16.16;83.36
53647;BME280;39550;52.230;5.194;2023-09-19T04:27:04;100638.63;;;16.15;83.42
53647;BME280;39550;52.230;5.194;2023-09-19T04:29:30;100631.78;;;16.11;83.00
53647;BME280;39550;52.230;5.194;2023-09-19T04:31:56;100638.63;;;16.15;82.94
53647;BME280;39550;52.230;5.194;2023-09-19T04:34:31;100627.44;;;16.11;83.04
53647;BME280;39550;52.230;5.194;2023-09-19T04:36:56;100641.28;;;16.13;82.99
53647;BME280;39550;52.230;5.194;2023-09-19T04:39:25;100640.41;;;16.13;83.34
53647;BME280;39550;52.230;5.194;2023-09-19T04:41:53;100642.19;;;16.11;83.16
53647;BME280;39550;52.230;5.194;2023-09-19T04:44:22;100636.09;;;16.12;82.81
53647;BME280;39550;52.230;5.194;2023-09-19T04:46:48;100637.00;;;16.09;83.01
53647;BME280;39550;52.230;5.194;2023-09-19T04:49:13;100630.06;;;16.10;82.55
53647;BME280;39550;52.230;5.194;2023-09-19T04:51:39;100628.34;;;16.09;83.24
53647;BME280;39550;52.230;5.194;2023-09-19T04:54:05;100629.25;;;16.08;82.87
53647;BME280;39550;52.230;5.194;2023-09-19T04:56:32;100634.47;;;16.06;83.12
53647;BME280;39550;52.230;5.194;2023-09-19T04:58:58;100638.81;;;16.06;83.07
53647;BME280;39550;52.230;5.194;2023-09-19T05:01:26;100636.22;;;16.04;82.80
53647;BME280;39550;52.230;5.194;2023-09-19T05:03:52;100652.69;;;16.05;82.50
53647;BME280;39550;52.230;5.194;2023-09-19T05:06:18;100645.84;;;16.00;82.22
53647;BME280;39550;52.230;5.194;2023-09-19T05:08:46;100646.69;;;16.01;81.95
53647;BME280;39550;52.230;5.194;2023-09-19T05:11:15;100651.91;;;15.99;82.22
53647;BME280;39550;52.230;5.194;2023-09-19T05:13:40;100651.03;;;16.00;81.89
53647;BME280;39550;52.230;5.194;2023-09-19T05:16:06;100649.31;;;15.99;81.78
53647;BME280;39550;52.230;5.194;2023-09-19T05:18:36;100647.59;;;15.98;82.34
53647;BME280;39550;52.230;5.194;2023-09-19T05:21:02;100643.31;;;15.96;82.03
53647;BME280;39550;52.230;5.194;2023-09-19T05:23:28;100652.84;;;15.95;81.71
53647;BME280;39550;52.230;5.194;2023-09-19T05:25:53;100645.88;;;15.97;82.38
53647;BME280;39550;52.230;5.194;2023-09-19T05:28:19;100650.22;;;15.97;81.99
53647;BME280;39550;52.230;5.194;2023-09-19T05:30:45;100639.88;;;15.95;82.10
53647;BME280;39550;52.230;5.194;2023-09-19T05:33:11;100645.03;;;15.97;82.70
53647;BME280;39550;52.230;5.194;2023-09-19T05:35:37;100650.22;;;15.97;81.95
53647;BME280;39550;52.230;5.194;2023-09-19T05:38:05;100664.97;;;15.96;82.76
53647;BME280;39550;52.230;5.194;2023-09-19T05:40:34;100656.28;;;15.97;82.21
53647;BME280;39550;52.230;5.194;2023-09-19T05:43:00;100652.88;;;15.94;81.95
53647;BME280;39550;52.230;5.194;2023-09-19T05:45:26;100662.44;;;15.92;82.28
53647;BME280;39550;52.230;5.194;2023-09-19T05:47:53;100661.59;;;15.91;81.95
53647;BME280;39550;52.230;5.194;2023-09-19T05:50:26;100670.25;;;15.90;81.40
53647;BME280;39550;52.230;5.194;2023-09-19T05:52:52;100668.50;;;15.92;81.79
53647;BME280;39550;52.230;5.194;2023-09-19T05:55:18;100675.41;;;15.93;81.68
53647;BME280;39550;52.230;5.194;2023-09-19T05:57:50;100671.97;;;15.91;81.39
53647;BME280;39550;52.230;5.194;2023-09-19T06:00:20;100683.22;;;15.92;82.18
53647;BME280;39550;52.230;5.194;2023-09-19T06:02:55;100682.38;;;15.91;81.73
53647;BME280;39550;52.230;5.194;2023-09-19T06:05:21;100671.97;;;15.91;82.09
53647;BME280;39550;52.230;5.194;2023-09-19T06:07:46;100685.03;;;15.87;81.56
53647;BME280;39550;52.230;5.194;2023-09-19T06:10:14;100687.66;;;15.85;81.63
53647;BME280;39550;52.230;5.194;2023-09-19T06:12:41;100682.47;;;15.85;81.61
53647;BME280;39550;52.230;5.194;2023-09-19T06:15:13;100679.00;;;15.86;80.78
53647;BME280;39550;52.230;5.194;2023-09-19T06:17:54;100693.72;;;15.87;80.55
53647;BME280;39550;52.230;5.194;2023-09-19T06:20:24;100698.03;;;15.88;80.75
53647;BME280;39550;52.230;5.194;2023-09-19T06:22:51;100682.44;;;15.88;81.43
53647;BME280;39550;52.230;5.194;2023-09-19T06:25:17;100685.78;;;15.93;81.44
53647;BME280;39550;52.230;5.194;2023-09-19T06:27:49;100676.22;;;15.97;80.76
53647;BME280;39550;52.230;5.194;2023-09-19T06:30:18;100673.72;;;15.92;81.31
53647;BME280;39550;52.230;5.194;2023-09-19T06:32:44;100666.00;;;15.86;80.54
53647;BME280;39550;52.230;5.194;2023-09-19T06:35:13;100681.50;;;15.91;81.13
53647;BME280;39550;52.230;5.194;2023-09-19T06:37:39;100672.88;;;15.89;80.90
53647;BME280;39550;52.230;5.194;2023-09-19T06:40:12;100682.38;;;15.91;80.69
53647;BME280;39550;52.230;5.194;2023-09-19T06:42:43;100670.25;;;15.90;80.54
53647;BME280;39550;52.230;5.194;2023-09-19T06:45:11;100677.19;;;15.91;81.04
53647;BME280;39550;52.230;5.194;2023-09-19T06:47:39;100677.19;;;15.91;81.13
53647;BME280;39550;52.230;5.194;2023-09-19T06:50:05;100678.94;;;15.89;80.72
53647;BME280;39550;52.230;5.194;2023-09-19T06:52:34;100675.47;;;15.90;80.77
53647;BME280;39550;52.230;5.194;2023-09-19T06:55:00;100683.28;;;15.89;80.78
53647;BME280;39550;52.230;5.194;2023-09-19T06:57:28;100681.50;;;15.92;80.99
53647;BME280;39550;52.230;5.194;2023-09-19T06:59:55;100680.59;;;15.93;80.42
53647;BME280;39550;52.230;5.194;2023-09-19T07:02:21;100687.53;;;15.93;80.75
53647;BME280;39550;52.230;5.194;2023-09-19T07:04:47;100685.78;;;15.93;81.29
53647;BME280;39550;52.230;5.194;2023-09-19T07:07:13;100679.75;;;15.93;80.74
53647;BME280;39550;52.230;5.194;2023-09-19T07:09:39;100688.41;;;15.93;81.39
53647;BME280;39550;52.230;5.194;2023-09-19T07:12:05;100688.41;;;15.92;81.10
53647;BME280;39550;52.230;5.194;2023-09-19T07:14:31;100703.13;;;15.94;81.07
53647;BME280;39550;52.230;5.194;2023-09-19T07:16:56;100697.94;;;15.93;81.03
53647;BME280;39550;52.230;5.194;2023-09-19T07:19:22;100691.88;;;15.94;80.60
53647;BME280;39550;52.230;5.194;2023-09-19T07:21:47;100700.53;;;15.93;81.15
53647;BME280;39550;52.230;5.194;2023-09-19T07:24:15;100697.91;;;15.94;80.62
53647;BME280;39550;52.230;5.194;2023-09-19T07:26:40;100708.34;;;15.93;80.56
53647;BME280;39550;52.230;5.194;2023-09-19T07:29:06;100719.56;;;15.95;80.88
53647;BME280;39550;52.230;5.194;2023-09-19T07:31:32;100711.75;;;15.95;80.58
53647;BME280;39550;52.230;5.194;2023-09-19T07:33:57;100715.25;;;15.94;81.24
53647;BME280;39550;52.230;5.194;2023-09-19T07:36:23;100720.44;;;15.95;81.10
53647;BME280;39550;52.230;5.194;2023-09-19T07:38:50;100723.00;;;15.97;81.19
53647;BME280;39550;52.230;5.194;2023-09-19T07:41:15;100719.56;;;15.96;80.63
53647;BME280;39550;52.230;5.194;2023-09-19T07:43:41;100722.16;;;15.96;80.80
53647;BME280;39550;52.230;5.194;2023-09-19T07:46:08;100721.28;;;15.96;80.74
53647;BME280;39550;52.230;5.194;2023-09-19T07:48:37;100723.91;;;15.94;80.53
53647;BME280;39550;52.230;5.194;2023-09-19T07:51:08;100722.19;;;15.93;80.64
53647;BME280;39550;52.230;5.194;2023-09-19T07:53:34;100726.47;;;15.96;81.05
53647;BME280;39550;52.230;5.194;2023-09-19T07:56:04;100725.56;;;15.98;80.47
53647;BME280;39550;52.230;5.194;2023-09-19T07:58:30;100725.56;;;15.98;80.39
53647;BME280;39550;52.230;5.194;2023-09-19T08:01:02;100738.50;;;16.02;80.80
53647;BME280;39550;52.230;5.194;2023-09-19T08:03:28;100720.31;;;16.02;80.44
53647;BME280;39550;52.230;5.194;2023-09-19T08:05:56;100720.31;;;16.02;80.18
53647;BME280;39550;52.230;5.194;2023-09-19T08:08:23;100721.19;;;16.02;80.47
53647;BME280;39550;52.230;5.194;2023-09-19T08:10:53;100725.50;;;16.02;79.99
53647;BME280;39550;52.230;5.194;2023-09-19T08:13:18;100715.13;;;16.02;80.40
53647;BME280;39550;52.230;5.194;2023-09-19T08:15:44;100715.13;;;16.02;80.31
53647;BME280;39550;52.230;5.194;2023-09-19T08:18:10;100717.66;;;16.05;80.38
53647;BME280;39550;52.230;5.194;2023-09-19T08:20:38;100715.06;;;16.06;80.08
53647;BME280;39550;52.230;5.194;2023-09-19T08:23:07;100715.91;;;16.07;79.97
53647;BME280;39550;52.230;5.194;2023-09-19T08:25:33;100734.91;;;16.10;80.03
53647;BME280;39550;52.230;5.194;2023-09-19T08:27:59;100704.56;;;16.11;80.02
53647;BME280;39550;52.230;5.194;2023-09-19T08:30:28;100716.69;;;16.12;79.55
53647;BME280;39550;52.230;5.194;2023-09-19T08:32:58;100713.16;;;16.16;79.84
53647;BME280;39550;52.230;5.194;2023-09-19T08:35:24;100699.25;;;16.17;79.72
53647;BME280;39550;52.230;5.194;2023-09-19T08:37:50;100697.56;;;16.16;79.73
53647;BME280;39550;52.230;5.194;2023-09-19T08:40:16;100694.06;;;16.17;79.46
53647;BME280;39550;52.230;5.194;2023-09-19T08:42:53;100700.13;;;16.17;79.35
53647;BME280;39550;52.230;5.194;2023-09-19T08:45:23;100713.09;;;16.19;79.55
53647;BME280;39550;52.230;5.194;2023-09-19T08:50:56;100703.56;;;16.18;79.37
53647;BME280;39550;52.230;5.194;2023-09-19T08:56:12;100729.50;;;16.21;79.72
53647;BME280;39550;52.230;5.194;2023-09-19T08:58:49;100726.91;;;16.21;79.74
53647;BME280;39550;52.230;5.194;2023-09-19T09:01:17;100709.53;;;16.25;79.20
53647;BME280;39550;52.230;5.194;2023-09-19T09:03:51;100717.28;;;16.26;79.09
53647;BME280;39550;52.230;5.194;2023-09-19T09:06:19;100717.25;;;16.28;79.53
53647;BME280;39550;52.230;5.194;2023-09-19T09:08:46;100725.09;;;16.26;78.88
53647;BME280;39550;52.230;5.194;2023-09-19T09:11:14;100717.34;;;16.23;79.91
53647;BME280;39550;52.230;5.194;2023-09-19T09:13:40;100707.84;;;16.22;79.67
53647;BME280;39550;52.230;5.194;2023-09-19T09:16:07;100703.44;;;16.26;79.53
53647;BME280;39550;52.230;5.194;2023-09-19T09:18:35;100725.09;;;16.26;79.39
53647;BME280;39550;52.230;5.194;2023-09-19T09:21:00;100708.66;;;16.26;79.32
53647;BME280;39550;52.230;5.194;2023-09-19T09:23:29;100695.63;;;16.27;79.27
53647;BME280;39550;52.230;5.194;2023-09-19T09:25:56;100693.00;;;16.27;79.26
53647;BME280;39550;52.230;5.194;2023-09-19T09:28:25;100682.69;;;16.24;79.08
53647;BME280;39550;52.230;5.194;2023-09-19T09:30:52;100702.56;;;16.25;79.61
53647;BME280;39550;52.230;5.194;2023-09-19T09:33:18;100686.09;;;16.26;79.15
53647;BME280;39550;52.230;5.194;2023-09-19T09:35:54;100688.69;;;16.26;79.01
53647;BME280;39550;52.230;5.194;2023-09-19T09:38:44;100702.59;;;16.24;79.43
53647;BME280;39550;52.230;5.194;2023-09-19T09:41:10;100684.50;;;16.19;79.41
53647;BME280;39550;52.230;5.194;2023-09-19T09:43:41;100681.84;;;16.22;78.96
53647;BME280;39550;52.230;5.194;2023-09-19T09:51:39;100684.94;;;16.43;78.37
53647;BME280;39550;52.230;5.194;2023-09-19T09:54:14;100691.91;;;16.41;78.15
53647;BME280;39550;52.230;5.194;2023-09-19T09:56:59;100691.94;;;16.38;78.77
53647;BME280;39550;52.230;5.194;2023-09-19T09:59:53;100686.78;;;16.36;79.00
53647;BME280;39550;52.230;5.194;2023-09-19T10:02:30;100687.72;;;16.32;78.46
53647;BME280;39550;52.230;5.194;2023-09-19T10:05:12;100695.59;;;16.29;78.80
53647;BME280;39550;52.230;5.194;2023-09-19T10:07:54;100691.19;;;16.31;79.04
53647;BME280;39550;52.230;5.194;2023-09-19T10:10:33;100686.88;;;16.31;78.46
53647;BME280;39550;52.230;5.194;2023-09-19T10:13:08;100676.41;;;16.34;78.94
53647;BME280;39550;52.230;5.194;2023-09-19T10:15:38;100690.19;;;16.40;78.93
53647;BME280;39550;52.230;5.194;2023-09-19T10:18:07;100668.53;;;16.38;78.24
53647;BME280;39550;52.230;5.194;2023-09-19T10:20:37;100671.84;;;16.46;78.38
53647;BME280;39550;52.230;5.194;2023-09-19T10:23:07;100670.06;;;16.49;78.27
53647;BME280;39550;52.230;5.194;2023-09-19T10:25:48;100678.69;;;16.51;78.30
53647;BME280;39550;52.230;5.194;2023-09-19T10:28:14;100656.13;;;16.54;77.96
53647;BME280;39550;52.230;5.194;2023-09-19T10:30:44;100652.63;;;16.53;78.11
53647;BME280;39550;52.230;5.194;2023-09-19T10:33:13;100639.63;;;16.53;78.11
53647;BME280;39550;52.230;5.194;2023-09-19T10:35:46;100643.06;;;16.55;77.50
53647;BME280;39550;52.230;5.194;2023-09-19T10:38:18;100637.88;;;16.55;77.72
53647;BME280;39550;52.230;5.194;2023-09-19T10:40:54;100636.06;;;16.57;77.29
53647;BME280;39550;52.230;5.194;2023-09-19T10:43:21;100636.91;;;16.59;76.94
53647;BME280;39550;52.230;5.194;2023-09-19T10:45:48;100635.97;;;16.63;77.50
53647;BME280;39550;52.230;5.194;2023-09-19T10:48:16;100641.16;;;16.63;77.39
53647;BME280;39550;52.230;5.194;2023-09-19T10:50:52;100628.94;;;16.68;77.03
53647;BME280;39550;52.230;5.194;2023-09-19T10:53:20;100626.34;;;16.68;77.16
53647;BME280;39550;52.230;5.194;2023-09-19T10:55:58;100625.38;;;16.73;76.94
53647;BME280;39550;52.230;5.194;2023-09-19T10:58:31;100621.06;;;16.72;77.09
53647;BME280;39550;52.230;5.194;2023-09-19T11:01:02;100617.56;;;16.73;77.34
53647;BME280;39550;52.230;5.194;2023-09-19T11:03:31;100624.44;;;16.75;77.07
53647;BME280;39550;52.230;5.194;2023-09-19T11:06:11;100647.16;;;16.68;77.52
53647;BME280;39550;52.230;5.194;2023-09-19T11:09:01;100634.19;;;16.65;77.55
53647;BME280;39550;52.230;5.194;2023-09-19T11:14:29;100632.50;;;16.64;77.80
53647;BME280;39550;52.230;5.194;2023-09-19T11:30:40;100601.13;;;16.71;77.15
53647;BME280;39550;52.230;5.194;2023-09-19T11:33:19;100604.69;;;16.66;77.78
53647;BME280;39550;52.230;5.194;2023-09-19T11:46:27;100594.09;;;16.76;76.93
53647;BME280;39550;52.230;5.194;2023-09-19T11:48:54;100585.50;;;16.71;77.47
53647;BME280;39550;52.230;5.194;2023-09-19T11:51:23;100585.50;;;16.71;77.34
53647;BME280;39550;52.230;5.194;2023-09-19T11:53:53;100603.69;;;16.72;77.19
53647;BME280;39550;52.230;5.194;2023-09-19T11:56:21;100606.22;;;16.77;77.16
53647;BME280;39550;52.230;5.194;2023-09-19T11:58:50;100609.06;;;16.64;77.34
53647;BME280;39550;52.230;5.194;2023-09-19T12:03:53;100608.22;;;16.62;77.44
53647;BME280;39550;52.230;5.194;2023-09-19T12:06:24;100604.75;;;16.63;77.76
53647;BME280;39550;52.230;5.194;2023-09-19T12:08:51;100597.91;;;16.59;78.17
53647;BME280;39550;52.230;5.194;2023-09-19T12:11:21;100619.69;;;16.54;77.96
53647;BME280;39550;52.230;5.194;2023-09-19T12:13:48;100613.66;;;16.51;78.15
53647;BME280;39550;52.230;5.194;2023-09-19T12:16:19;100624.97;;;16.50;78.23
53647;BME280;39550;52.230;5.194;2023-09-19T12:18:49;100589.47;;;16.48;77.79
53647;BME280;39550;52.230;5.194;2023-09-19T12:23:42;100601.56;;;16.49;78.16
53647;BME280;39550;52.230;5.194;2023-09-19T12:26:08;100590.41;;;16.44;78.09
53647;BME280;39550;52.230;5.194;2023-09-19T12:28:41;100608.63;;;16.44;78.64
53647;BME280;39550;52.230;5.194;2023-09-19T12:31:10;100603.34;;;16.47;78.08
53647;BME280;39550;52.230;5.194;2023-09-19T12:33:37;100591.13;;;16.52;77.97
53647;BME280;39550;52.230;5.194;2023-09-19T12:36:23;100604.16;;;16.50;77.93
53647;BME280;39550;52.230;5.194;2023-09-19T12:38:59;100608.56;;;16.47;78.59
53647;BME280;39550;52.230;5.194;2023-09-19T12:41:25;100591.88;;;16.56;77.91
53647;BME280;39550;52.230;5.194;2023-09-19T12:43:53;100599.53;;;16.63;77.71
53647;BME280;39550;52.230;5.194;2023-09-19T12:46:22;100599.47;;;16.66;77.45
53647;BME280;39550;52.230;5.194;2023-09-19T12:49:19;100597.81;;;16.62;77.67
53647;BME280;39550;52.230;5.194;2023-09-19T12:51:48;100596.09;;;16.61;77.42
53647;BME280;39550;52.230;5.194;2023-09-19T12:54:13;100592.72;;;16.58;78.22
53647;BME280;39550;52.230;5.194;2023-09-19T12:56:43;100602.25;;;16.59;77.56
53647;BME280;39550;52.230;5.194;2023-09-19T12:59:12;100597.91;;;16.59;77.99
53647;BME280;39550;52.230;5.194;2023-09-19T13:01:39;100593.63;;;16.57;78.18
53647;BME280;39550;52.230;5.194;2023-09-19T13:04:18;100601.38;;;16.58;77.83
53647;BME280;39550;52.230;5.194;2023-09-19T13:06:48;100604.81;;;16.60;77.66
53647;BME280;39550;52.230;5.194;2023-09-19T13:09:15;100584.75;;;16.67;77.40
53647;BME280;39550;52.230;5.194;2023-09-19T13:11:42;100597.81;;;16.62;77.79
53647;BME280;39550;52.230;5.194;2023-09-19T13:14:26;100599.47;;;16.66;77.67
53647;BME280;39550;52.230;5.194;2023-09-19T13:17:03;100590.44;;;16.83;77.31
53647;BME280;39550;52.230;5.194;2023-09-19T13:19:43;100609.44;;;16.88;77.53
53647;BME280;39550;52.230;5.194;2023-09-19T13:22:36;100589.41;;;16.92;76.79
53647;BME280;39550;52.230;5.194;2023-09-19T13:25:02;100598.84;;;16.96;76.96
53647;BME280;39550;52.230;5.194;2023-09-19T13:27:29;100595.50;;;16.92;76.95
53647;BME280;39550;52.230;5.194;2023-09-19T13:29:54;100598.19;;;16.86;77.13
53647;BME280;39550;52.230;5.194;2023-09-19T13:32:20;100603.53;;;16.80;77.62
53647;BME280;39550;52.230;5.194;2023-09-19T13:34:45;100590.63;;;16.74;77.54
53647;BME280;39550;52.230;5.194;2023-09-19T13:37:11;100601.97;;;16.71;78.00
53647;BME280;39550;52.230;5.194;2023-09-19T13:39:38;100596.00;;;16.67;77.80
53647;BME280;39550;52.230;5.194;2023-09-19T13:42:13;100610.75;;;16.67;78.08
53647;BME280;39550;52.230;5.194;2023-09-19T13:44:38;100602.97;;;16.65;78.10
53647;BME280;39550;52.230;5.194;2023-09-19T13:47:04;100615.97;;;16.67;78.45
53647;BME280;39550;52.230;5.194;2023-09-19T13:49:35;100604.69;;;16.66;77.98
53647;BME280;39550;52.230;5.194;2023-09-19T13:52:01;100606.47;;;16.64;78.54
53647;BME280;39550;52.230;5.194;2023-09-19T13:54:29;100601.28;;;16.64;78.42
53647;BME280;39550;52.230;5.194;2023-09-19T13:56:55;100590.78;;;16.67;78.29
53647;BME280;39550;52.230;5.194;2023-09-19T13:59:20;100573.47;;;16.66;78.46
53647;BME280;39550;52.230;5.194;2023-09-19T14:01:52;100598.66;;;16.64;78.07